sensor_id;sensor_type;location;lat;lon;timestamp;temperature;humidity
7530;DHT22;3806;52.270;10.544;2023-09-08T00:00:55;20.30;96.40
7530;DHT22;3806;52.270;10.544;2023-09-08T00:03:21;20.20;96.40
7530;DHT22;3806;52.270;10.544;2023-09-08T00:05:47;20.20;96.50
7530;DHT22;3806;52.270;10.544;2023-09-08T00:08:12;20.20;96.50
7530;DHT22;3806;52.270;10.544;2023-09-08T00:10:38;20.20;96.70
7530;DHT22;3806;52.270;10.544;2023-09-08T00:13:03;20.20;96.90
7530;DHT22;3806;52.270;10.544;2023-09-08T00:15:29;20.20;96.90
7530;DHT22;3806;52.270;10.544;2023-09-08T00:17:54;20.10;96.90
7530;DHT22;3806;52.270;10.544;2023-09-08T00:20:25;20.10;96.80
7530;DHT22;3806;52.270;10.544;2023-09-08T00:22:50;20.10;96.60
7530;DHT22;3806;52.270;10.544;2023-09-08T00:25:16;20.10;96.70
7530;DHT22;3806;52.270;10.544;2023-09-08T00:27:41;20.10;97.00
7530;DHT22;3806;52.270;10.544;2023-09-08T00:30:07;20.10;97.40
7530;DHT22;3806;52.270;10.544;2023-09-08T00:32:33;20.00;97.60
7530;DHT22;3806;52.270;10.544;2023-09-08T00:34:58;20.00;97.60
7530;DHT22;3806;52.270;10.544;2023-09-08T00:37:24;20.00;97.60
7530;DHT22;3806;52.270;10.544;2023-09-08T00:39:49;20.00;97.80
7530;DHT22;3806;52.270;10.544;2023-09-08T00:42:15;20.00;98.00
7530;DHT22;3806;52.270;10.544;2023-09-08T00:44:40;20.00;98.20
7530;DHT22;3806;52.270;10.544;2023-09-08T00:47:06;20.00;98.20
7530;DHT22;3806;52.270;10.544;2023-09-08T00:49:31;20.00;98.10
7530;DHT22;3806;52.270;10.544;2023-09-08T00:51:57;20.00;98.30
7530;DHT22;3806;52.270;10.544;2023-09-08T00:54:23;20.00;98.30
7530;DHT22;3806;52.270;10.544;2023-09-08T00:56:49;20.00;98.10
7530;DHT22;3806;52.270;10.544;2023-09-08T00:59:19;20.00;98.00
7530;DHT22;3806;52.270;10.544;2023-09-08T01:01:44;19.90;98.20
7530;DHT22;3806;52.270;10.544;2023-09-08T01:04:10;19.80;98.30
7530;DHT22;3806;52.270;10.544;2023-09-08T01:06:35;19.80;98.20
7530;DHT22;3806;52.270;10.544;2023-09-08T01:09:03;19.80;98.20
7530;DHT22;3806;52.270;10.544;2023-09-08T01:11:29;19.80;98.40
7530;DHT22;3806;52.270;10.544;2023-09-08T01:13:55;19.70;98.60
7530;DHT22;3806;52.270;10.544;2023-09-08T01:16:21;19.70;98.60
7530;DHT22;3806;52.270;10.544;2023-09-08T01:18:47;19.70;98.50
7530;DHT22;3806;52.270;10.544;2023-09-08T01:21:31;19.70;98.20
7530;DHT22;3806;52.270;10.544;2023-09-08T01:25:18;19.60;98.40
7530;DHT22;3806;52.270;10.544;2023-09-08T01:27:12;19.40;98.90
7530;DHT22;3806;52.270;10.544;2023-09-08T01:29:40;19.40;99.10
7530;DHT22;3806;52.270;10.544;2023-09-08T01:32:07;19.30;99.30
7530;DHT22;3806;52.270;10.544;2023-09-08T01:34:35;19.20;99.30
7530;DHT22;3806;52.270;10.544;2023-09-08T01:37:02;19.30;99.50
7530;DHT22;3806;52.270;10.544;2023-09-08T01:39:29;19.20;99.40
7530;DHT22;3806;52.270;10.544;2023-09-08T01:41:55;19.20;99.40
7530;DHT22;3806;52.270;10.544;2023-09-08T01:44:20;19.30;99.70
7530;DHT22;3806;52.270;10.544;2023-09-08T01:46:46;19.30;99.60
7530;DHT22;3806;52.270;10.544;2023-09-08T01:49:11;19.30;99.40
7530;DHT22;3806;52.270;10.544;2023-09-08T01:51:37;19.30;99.40
7530;DHT22;3806;52.270;10.544;2023-09-08T01:54:02;19.30;99.50
7530;DHT22;3806;52.270;10.544;2023-09-08T01:56:28;19.20;99.40
7530;DHT22;3806;52.270;10.544;2023-09-08T01:58:53;19.20;99.60
7530;DHT22;3806;52.270;10.544;2023-09-08T02:01:19;19.20;99.70
7530;DHT22;3806;52.270;10.544;2023-09-08T02:03:45;19.10;99.60
7530;DHT22;3806;52.270;10.544;2023-09-08T02:06:10;19.10;99.70
7530;DHT22;3806;52.270;10.544;2023-09-08T02:08:35;19.10;99.80
7530;DHT22;3806;52.270;10.544;2023-09-08T02:11:01;19.10;99.90
7530;DHT22;3806;52.270;10.544;2023-09-08T02:13:26;19.10;99.90
7530;DHT22;3806;52.270;10.544;2023-09-08T02:15:52;19.10;99.90
7530;DHT22;3806;52.270;10.544;2023-09-08T02:18:17;19.10;99.90
7530;DHT22;3806;52.270;10.544;2023-09-08T02:20:43;19.10;99.90
7530;DHT22;3806;52.270;10.544;2023-09-08T02:23:09;19.10;99.90
7530;DHT22;3806;52.270;10.544;2023-09-08T02:25:34;19.10;99.90
7530;DHT22;3806;52.270;10.544;2023-09-08T02:28:00;19.20;99.80
7530;DHT22;3806;52.270;10.544;2023-09-08T02:30:25;19.10;99.80
7530;DHT22;3806;52.270;10.544;2023-09-08T02:32:51;19.10;99.90
7530;DHT22;3806;52.270;10.544;2023-09-08T02:35:16;19.00;99.90
7530;DHT22;3806;52.270;10.544;2023-09-08T02:37:41;18.90;99.90
7530;DHT22;3806;52.270;10.544;2023-09-08T02:40:07;18.90;99.90
7530;DHT22;3806;52.270;10.544;2023-09-08T02:42:33;18.80;99.90
7530;DHT22;3806;52.270;10.544;2023-09-08T02:44:58;18.80;99.90
7530;DHT22;3806;52.270;10.544;2023-09-08T02:47:24;18.80;99.90
7530;DHT22;3806;52.270;10.544;2023-09-08T02:49:49;18.80;99.90
7530;DHT22;3806;52.270;10.544;2023-09-08T02:52:15;18.70;99.90
7530;DHT22;3806;52.270;10.544;2023-09-08T02:54:40;18.70;99.90
7530;DHT22;3806;52.270;10.544;2023-09-08T02:57:06;18.60;99.90
7530;DHT22;3806;52.270;10.544;2023-09-08T02:59:32;18.50;99.90
7530;DHT22;3806;52.270;10.544;2023-09-08T03:01:59;18.40;99.90
7530;DHT22;3806;52.270;10.544;2023-09-08T03:04:24;18.40;99.90
7530;DHT22;3806;52.270;10.544;2023-09-08T03:06:50;18.40;99.90
7530;DHT22;3806;52.270;10.544;2023-09-08T03:09:15;18.40;99.90
7530;DHT22;3806;52.270;10.544;2023-09-08T03:11:41;18.30;99.90
7530;DHT22;3806;52.270;10.544;2023-09-08T03:14:07;18.30;99.90
7530;DHT22;3806;52.270;10.544;2023-09-08T03:16:32;18.30;99.90
7530;DHT22;3806;52.270;10.544;2023-09-08T03:18:58;18.30;99.90
7530;DHT22;3806;52.270;10.544;2023-09-08T03:21:27;18.30;99.90
7530;DHT22;3806;52.270;10.544;2023-09-08T03:23:52;18.30;99.90
7530;DHT22;3806;52.270;10.544;2023-09-08T03:26:18;18.20;99.90
7530;DHT22;3806;52.270;10.544;2023-09-08T03:28:43;18.20;99.90
7530;DHT22;3806;52.270;10.544;2023-09-08T03:31:09;18.30;99.90
7530;DHT22;3806;52.270;10.544;2023-09-08T03:33:34;18.20;99.90
7530;DHT22;3806;52.270;10.544;2023-09-08T03:36:00;18.20;99.90
7530;DHT22;3806;52.270;10.544;2023-09-08T03:38:26;18.20;99.90
7530;DHT22;3806;52.270;10.544;2023-09-08T03:40:52;18.30;99.90
7530;DHT22;3806;52.270;10.544;2023-09-08T03:43:17;18.30;99.90
7530;DHT22;3806;52.270;10.544;2023-09-08T03:45:47;18.30;99.90
7530;DHT22;3806;52.270;10.544;2023-09-08T03:48:12;18.30;99.90
7530;DHT22;3806;52.270;10.544;2023-09-08T03:50:41;18.30;99.90
7530;DHT22;3806;52.270;10.544;2023-09-08T03:53:07;18.20;99.90
7530;DHT22;3806;52.270;10.544;2023-09-08T03:55:33;18.20;99.90
7530;DHT22;3806;52.270;10.544;2023-09-08T03:57:58;18.20;99.90
7530;DHT22;3806;52.270;10.544;2023-09-08T04:00:24;18.20;99.90
7530;DHT22;3806;52.270;10.544;2023-09-08T04:02:49;18.20;99.90
7530;DHT22;3806;52.270;10.544;2023-09-08T04:05:18;18.20;99.90
7530;DHT22;3806;52.270;10.544;2023-09-08T04:07:47;18.10;99.90
7530;DHT22;3806;52.270;10.544;2023-09-08T04:10:13;18.10;99.90
7530;DHT22;3806;52.270;10.544;2023-09-08T04:12:41;18.00;99.90
7530;DHT22;3806;52.270;10.544;2023-09-08T04:15:08;18.00;99.90
7530;DHT22;3806;52.270;10.544;2023-09-08T04:17:34;17.90;99.90
7530;DHT22;3806;52.270;10.544;2023-09-08T04:20:02;18.00;99.90
7530;DHT22;3806;52.270;10.544;2023-09-08T04:22:30;18.00;99.90
7530;DHT22;3806;52.270;10.544;2023-09-08T04:24:56;18.00;99.90
7530;DHT22;3806;52.270;10.544;2023-09-08T04:27:23;18.00;99.90
7530;DHT22;3806;52.270;10.544;2023-09-08T04:29:48;18.00;99.90
7530;DHT22;3806;52.270;10.544;2023-09-08T04:32:14;17.90;99.90
7530;DHT22;3806;52.270;10.544;2023-09-08T04:34:41;17.80;99.90
7530;DHT22;3806;52.270;10.544;2023-09-08T04:37:07;17.80;99.90
7530;DHT22;3806;52.270;10.544;2023-09-08T04:39:33;17.80;99.90
7530;DHT22;3806;52.270;10.544;2023-09-08T04:42:00;17.70;99.90
7530;DHT22;3806;52.270;10.544;2023-09-08T04:44:25;17.70;99.90
7530;DHT22;3806;52.270;10.544;2023-09-08T04:46:52;17.70;99.90
7530;DHT22;3806;52.270;10.544;2023-09-08T04:49:17;17.70;99.90
7530;DHT22;3806;52.270;10.544;2023-09-08T04:51:43;17.60;99.90
7530;DHT22;3806;52.270;10.544;2023-09-08T04:54:09;17.60;99.90
7530;DHT22;3806;52.270;10.544;2023-09-08T04:56:35;17.60;99.90
7530;DHT22;3806;52.270;10.544;2023-09-08T04:59:00;17.50;99.90
7530;DHT22;3806;52.270;10.544;2023-09-08T05:01:27;17.60;99.90
7530;DHT22;3806;52.270;10.544;2023-09-08T05:03:54;17.60;99.90
7530;DHT22;3806;52.270;10.544;2023-09-08T05:06:20;17.60;99.90
7530;DHT22;3806;52.270;10.544;2023-09-08T05:08:46;17.50;99.90
7530;DHT22;3806;52.270;10.544;2023-09-08T05:11:11;17.60;99.90
7530;DHT22;3806;52.270;10.544;2023-09-08T05:13:37;17.60;99.90
7530;DHT22;3806;52.270;10.544;2023-09-08T05:16:02;17.60;99.90
7530;DHT22;3806;52.270;10.544;2023-09-08T05:18:38;17.60;99.90
7530;DHT22;3806;52.270;10.544;2023-09-08T05:21:03;17.60;99.90
7530;DHT22;3806;52.270;10.544;2023-09-08T05:23:29;17.60;99.90
7530;DHT22;3806;52.270;10.544;2023-09-08T05:25:55;17.60;99.90
7530;DHT22;3806;52.270;10.544;2023-09-08T05:28:20;17.70;99.90
7530;DHT22;3806;52.270;10.544;2023-09-08T05:30:46;17.70;99.90
7530;DHT22;3806;52.270;10.544;2023-09-08T05:33:11;17.80;99.90
7530;DHT22;3806;52.270;10.544;2023-09-08T05:35:37;17.80;99.90
7530;DHT22;3806;52.270;10.544;2023-09-08T05:38:03;17.90;99.90
7530;DHT22;3806;52.270;10.544;2023-09-08T05:40:29;18.00;99.90
7530;DHT22;3806;52.270;10.544;2023-09-08T05:42:54;18.00;99.90
7530;DHT22;3806;52.270;10.544;2023-09-08T05:45:20;18.10;99.90
7530;DHT22;3806;52.270;10.544;2023-09-08T05:47:45;18.40;99.90
7530;DHT22;3806;52.270;10.544;2023-09-08T05:50:11;19.20;99.90
7530;DHT22;3806;52.270;10.544;2023-09-08T05:52:36;20.50;99.90
7530;DHT22;3806;52.270;10.544;2023-09-08T05:55:02;22.20;99.00
7530;DHT22;3806;52.270;10.544;2023-09-08T05:57:27;23.90;95.00
7530;DHT22;3806;52.270;10.544;2023-09-08T05:59:53;25.60;90.80
7530;DHT22;3806;52.270;10.544;2023-09-08T06:02:19;27.20;81.60
7530;DHT22;3806;52.270;10.544;2023-09-08T06:04:44;28.60;72.10
7530;DHT22;3806;52.270;10.544;2023-09-08T06:07:10;30.00;63.30
7530;DHT22;3806;52.270;10.544;2023-09-08T06:09:35;31.20;56.20
7530;DHT22;3806;52.270;10.544;2023-09-08T06:12:01;32.30;50.60
7530;DHT22;3806;52.270;10.544;2023-09-08T06:14:26;33.20;46.60
7530;DHT22;3806;52.270;10.544;2023-09-08T06:16:52;34.20;43.20
7530;DHT22;3806;52.270;10.544;2023-09-08T06:19:17;35.00;40.20
7530;DHT22;3806;52.270;10.544;2023-09-08T06:21:43;35.80;37.90
7530;DHT22;3806;52.270;10.544;2023-09-08T06:24:08;36.50;35.90
7530;DHT22;3806;52.270;10.544;2023-09-08T06:26:34;37.20;34.40
7530;DHT22;3806;52.270;10.544;2023-09-08T06:29:00;37.90;32.50
7530;DHT22;3806;52.270;10.544;2023-09-08T06:31:25;38.50;31.00
7530;DHT22;3806;52.270;10.544;2023-09-08T06:33:51;39.00;29.90
7530;DHT22;3806;52.270;10.544;2023-09-08T06:36:18;39.60;28.90
7530;DHT22;3806;52.270;10.544;2023-09-08T06:38:43;40.20;28.30
7530;DHT22;3806;52.270;10.544;2023-09-08T06:41:12;40.70;27.50
7530;DHT22;3806;52.270;10.544;2023-09-08T06:43:38;41.30;26.70
7530;DHT22;3806;52.270;10.544;2023-09-08T06:46:04;41.70;26.00
7530;DHT22;3806;52.270;10.544;2023-09-08T06:48:30;42.10;25.90
7530;DHT22;3806;52.270;10.544;2023-09-08T06:50:56;42.70;25.20
7530;DHT22;3806;52.270;10.544;2023-09-08T06:53:24;43.20;24.20
7530;DHT22;3806;52.270;10.544;2023-09-08T06:55:50;43.50;24.10
7530;DHT22;3806;52.270;10.544;2023-09-08T06:58:15;43.90;23.70
7530;DHT22;3806;52.270;10.544;2023-09-08T07:00:42;44.30;23.40
7530;DHT22;3806;52.270;10.544;2023-09-08T07:03:07;44.80;23.10
7530;DHT22;3806;52.270;10.544;2023-09-08T07:05:34;45.20;22.60
7530;DHT22;3806;52.270;10.544;2023-09-08T07:07:59;45.60;22.20
7530;DHT22;3806;52.270;10.544;2023-09-08T07:10:25;45.90;21.60
7530;DHT22;3806;52.270;10.544;2023-09-08T07:12:50;46.10;21.50
7530;DHT22;3806;52.270;10.544;2023-09-08T07:15:16;46.10;21.60
7530;DHT22;3806;52.270;10.544;2023-09-08T07:17:41;46.20;21.30
7530;DHT22;3806;52.270;10.544;2023-09-08T07:20:08;46.00;21.40
7530;DHT22;3806;52.270;10.544;2023-09-08T07:22:33;45.50;21.70
7530;DHT22;3806;52.270;10.544;2023-09-08T07:24:59;44.70;22.20
7530;DHT22;3806;52.270;10.544;2023-09-08T07:27:25;43.40;22.80
7530;DHT22;3806;52.270;10.544;2023-09-08T07:29:51;41.70;23.90
7530;DHT22;3806;52.270;10.544;2023-09-08T07:32:18;40.20;25.20
7530;DHT22;3806;52.270;10.544;2023-09-08T07:34:43;38.90;26.20
7530;DHT22;3806;52.270;10.544;2023-09-08T07:37:09;37.60;27.20
7530;DHT22;3806;52.270;10.544;2023-09-08T07:39:35;36.60;28.40
7530;DHT22;3806;52.270;10.544;2023-09-08T07:42:01;35.70;29.50
7530;DHT22;3806;52.270;10.544;2023-09-08T07:44:27;34.90;30.50
7530;DHT22;3806;52.270;10.544;2023-09-08T07:46:52;34.40;31.60
7530;DHT22;3806;52.270;10.544;2023-09-08T07:49:20;34.20;32.20
7530;DHT22;3806;52.270;10.544;2023-09-08T07:51:46;34.50;32.60
7530;DHT22;3806;52.270;10.544;2023-09-08T07:54:13;35.00;31.90
7530;DHT22;3806;52.270;10.544;2023-09-08T07:56:39;35.80;30.80
7530;DHT22;3806;52.270;10.544;2023-09-08T07:59:06;36.70;29.80
7530;DHT22;3806;52.270;10.544;2023-09-08T08:01:32;37.60;29.60
7530;DHT22;3806;52.270;10.544;2023-09-08T08:03:58;39.10;28.60
7530;DHT22;3806;52.270;10.544;2023-09-08T08:06:23;40.80;27.20
7530;DHT22;3806;52.270;10.544;2023-09-08T08:08:49;42.50;25.50
7530;DHT22;3806;52.270;10.544;2023-09-08T08:11:16;44.10;24.40
7530;DHT22;3806;52.270;10.544;2023-09-08T08:13:46;45.40;23.40
7530;DHT22;3806;52.270;10.544;2023-09-08T08:16:11;46.60;22.80
7530;DHT22;3806;52.270;10.544;2023-09-08T08:18:37;47.60;22.00
7530;DHT22;3806;52.270;10.544;2023-09-08T08:21:03;48.70;21.50
7530;DHT22;3806;52.270;10.544;2023-09-08T08:23:29;49.40;20.90
7530;DHT22;3806;52.270;10.544;2023-09-08T08:25:55;50.10;20.10
7530;DHT22;3806;52.270;10.544;2023-09-08T08:28:20;50.90;19.90
7530;DHT22;3806;52.270;10.544;2023-09-08T08:30:46;51.50;19.60
7530;DHT22;3806;52.270;10.544;2023-09-08T08:33:15;52.20;19.20
7530;DHT22;3806;52.270;10.544;2023-09-08T08:35:41;52.80;19.00
7530;DHT22;3806;52.270;10.544;2023-09-08T08:38:06;53.40;18.90
7530;DHT22;3806;52.270;10.544;2023-09-08T08:40:32;53.80;17.30
7530;DHT22;3806;52.270;10.544;2023-09-08T08:42:59;54.30;17.50
7530;DHT22;3806;52.270;10.544;2023-09-08T08:45:26;54.90;16.30
7530;DHT22;3806;52.270;10.544;2023-09-08T08:47:52;55.10;15.80
7530;DHT22;3806;52.270;10.544;2023-09-08T08:50:19;55.30;15.50
7530;DHT22;3806;52.270;10.544;2023-09-08T08:52:45;55.20;14.90
7530;DHT22;3806;52.270;10.544;2023-09-08T08:55:11;55.00;15.10
7530;DHT22;3806;52.270;10.544;2023-09-08T08:57:38;55.20;14.90
7530;DHT22;3806;52.270;10.544;2023-09-08T09:00:09;55.50;14.70
7530;DHT22;3806;52.270;10.544;2023-09-08T09:02:39;55.60;14.00
7530;DHT22;3806;52.270;10.544;2023-09-08T09:05:05;55.20;14.50
7530;DHT22;3806;52.270;10.544;2023-09-08T09:07:32;54.70;14.50
7530;DHT22;3806;52.270;10.544;2023-09-08T09:09:58;54.20;14.50
7530;DHT22;3806;52.270;10.544;2023-09-08T09:12:24;54.00;14.90
7530;DHT22;3806;52.270;10.544;2023-09-08T09:14:53;54.00;14.60
7530;DHT22;3806;52.270;10.544;2023-09-08T09:17:21;54.00;14.90
7530;DHT22;3806;52.270;10.544;2023-09-08T09:19:46;54.30;14.70
7530;DHT22;3806;52.270;10.544;2023-09-08T09:22:12;54.40;14.60
7530;DHT22;3806;52.270;10.544;2023-09-08T09:24:40;54.10;14.50
7530;DHT22;3806;52.270;10.544;2023-09-08T09:27:09;53.80;14.50
7530;DHT22;3806;52.270;10.544;2023-09-08T09:29:44;53.00;15.00
7530;DHT22;3806;52.270;10.544;2023-09-08T09:32:15;51.90;15.60
7530;DHT22;3806;52.270;10.544;2023-09-08T09:34:49;51.10;15.90
7530;DHT22;3806;52.270;10.544;2023-09-08T09:37:15;49.90;16.60
7530;DHT22;3806;52.270;10.544;2023-09-08T09:39:41;48.40;17.20
7530;DHT22;3806;52.270;10.544;2023-09-08T09:42:06;46.90;17.80
7530;DHT22;3806;52.270;10.544;2023-09-08T09:44:32;45.50;18.60
7530;DHT22;3806;52.270;10.544;2023-09-08T09:47:00;44.40;19.40
7530;DHT22;3806;52.270;10.544;2023-09-08T09:49:26;43.30;20.10
7530;DHT22;3806;52.270;10.544;2023-09-08T09:51:57;42.30;20.70
7530;DHT22;3806;52.270;10.544;2023-09-08T09:54:23;41.30;21.60
7530;DHT22;3806;52.270;10.544;2023-09-08T09:56:48;40.50;22.10
7530;DHT22;3806;52.270;10.544;2023-09-08T09:59:17;39.70;22.90
7530;DHT22;3806;52.270;10.544;2023-09-08T10:01:43;39.00;23.20
7530;DHT22;3806;52.270;10.544;2023-09-08T10:04:09;38.60;23.40
7530;DHT22;3806;52.270;10.544;2023-09-08T10:06:36;38.00;23.80
7530;DHT22;3806;52.270;10.544;2023-09-08T10:09:04;37.50;24.40
7530;DHT22;3806;52.270;10.544;2023-09-08T10:11:35;37.20;24.80
7530;DHT22;3806;52.270;10.544;2023-09-08T10:14:04;37.20;24.90
7530;DHT22;3806;52.270;10.544;2023-09-08T10:16:34;37.00;25.10
7530;DHT22;3806;52.270;10.544;2023-09-08T10:19:00;36.90;25.40
7530;DHT22;3806;52.270;10.544;2023-09-08T10:21:26;36.90;25.50
7530;DHT22;3806;52.270;10.544;2023-09-08T10:23:59;36.80;25.30
7530;DHT22;3806;52.270;10.544;2023-09-08T10:26:27;36.70;25.30
7530;DHT22;3806;52.270;10.544;2023-09-08T10:28:54;36.50;25.60
7530;DHT22;3806;52.270;10.544;2023-09-08T10:31:25;36.30;25.90
7530;DHT22;3806;52.270;10.544;2023-09-08T10:33:52;36.20;26.20
7530;DHT22;3806;52.270;10.544;2023-09-08T10:36:18;36.10;26.40
7530;DHT22;3806;52.270;10.544;2023-09-08T10:38:44;36.10;26.40
7530;DHT22;3806;52.270;10.544;2023-09-08T10:44:06;36.20;26.50
7530;DHT22;3806;52.270;10.544;2023-09-08T10:46:35;36.20;26.10
7530;DHT22;3806;52.270;10.544;2023-09-08T10:49:04;36.30;26.00
7530;DHT22;3806;52.270;10.544;2023-09-08T10:51:29;36.40;25.90
7530;DHT22;3806;52.270;10.544;2023-09-08T10:53:55;36.30;25.70
7530;DHT22;3806;52.270;10.544;2023-09-08T10:56:27;36.10;26.20
7530;DHT22;3806;52.270;10.544;2023-09-08T10:58:54;36.10;26.10
7530;DHT22;3806;52.270;10.544;2023-09-08T11:01:21;35.90;26.40
7530;DHT22;3806;52.270;10.544;2023-09-08T11:03:53;35.70;26.80
7530;DHT22;3806;52.270;10.544;2023-09-08T11:06:19;35.70;26.60
7530;DHT22;3806;52.270;10.544;2023-09-08T11:08:47;35.80;26.80
7530;DHT22;3806;52.270;10.544;2023-09-08T11:11:16;35.60;26.90
7530;DHT22;3806;52.270;10.544;2023-09-08T11:13:42;35.50;27.00
7530;DHT22;3806;52.270;10.544;2023-09-08T11:16:11;35.30;26.60
7530;DHT22;3806;52.270;10.544;2023-09-08T11:18:36;35.20;27.00
7530;DHT22;3806;52.270;10.544;2023-09-08T11:21:03;35.00;27.20
7530;DHT22;3806;52.270;10.544;2023-09-08T11:23:32;34.80;27.10
7530;DHT22;3806;52.270;10.544;2023-09-08T11:25:59;34.70;27.40
7530;DHT22;3806;52.270;10.544;2023-09-08T11:28:27;34.60;27.80
7530;DHT22;3806;52.270;10.544;2023-09-08T11:30:54;34.70;27.70
7530;DHT22;3806;52.270;10.544;2023-09-08T11:33:21;34.60;27.60
7530;DHT22;3806;52.270;10.544;2023-09-08T11:35:53;34.50;28.30
7530;DHT22;3806;52.270;10.544;2023-09-08T11:38:25;34.30;27.70
7530;DHT22;3806;52.270;10.544;2023-09-08T11:40:51;34.30;28.10
7530;DHT22;3806;52.270;10.544;2023-09-08T11:43:18;34.30;27.90
7530;DHT22;3806;52.270;10.544;2023-09-08T11:45:43;34.30;28.00
7530;DHT22;3806;52.270;10.544;2023-09-08T11:48:09;34.10;28.50
7530;DHT22;3806;52.270;10.544;2023-09-08T11:50:35;34.00;29.00
7530;DHT22;3806;52.270;10.544;2023-09-08T11:53:01;33.90;28.60
7530;DHT22;3806;52.270;10.544;2023-09-08T11:55:28;34.00;28.30
7530;DHT22;3806;52.270;10.544;2023-09-08T11:57:55;34.00;28.20
7530;DHT22;3806;52.270;10.544;2023-09-08T12:00:29;34.00;27.80
7530;DHT22;3806;52.270;10.544;2023-09-08T12:02:55;34.20;28.00
7530;DHT22;3806;52.270;10.544;2023-09-08T12:05:23;34.10;28.10
7530;DHT22;3806;52.270;10.544;2023-09-08T12:07:55;34.10;27.90
7530;DHT22;3806;52.270;10.544;2023-09-08T12:10:22;34.10;27.20
7530;DHT22;3806;52.270;10.544;2023-09-08T12:12:52;34.00;27.00
7530;DHT22;3806;52.270;10.544;2023-09-08T12:15:52;33.70;27.90
7530;DHT22;3806;52.270;10.544;2023-09-08T12:18:18;33.60;28.60
7530;DHT22;3806;52.270;10.544;2023-09-08T12:20:44;33.50;28.70
7530;DHT22;3806;52.270;10.544;2023-09-08T12:23:21;33.60;27.50
7530;DHT22;3806;52.270;10.544;2023-09-08T12:25:51;33.50;27.40
7530;DHT22;3806;52.270;10.544;2023-09-08T12:28:18;33.60;27.50
7530;DHT22;3806;52.270;10.544;2023-09-08T12:30:44;33.70;27.90
7530;DHT22;3806;52.270;10.544;2023-09-08T12:33:10;33.60;28.00
7530;DHT22;3806;52.270;10.544;2023-09-08T12:35:36;33.60;28.50
7530;DHT22;3806;52.270;10.544;2023-09-08T12:38:03;33.80;27.80
7530;DHT22;3806;52.270;10.544;2023-09-08T12:40:33;33.80;28.00
7530;DHT22;3806;52.270;10.544;2023-09-08T12:42:59;33.90;27.60
7530;DHT22;3806;52.270;10.544;2023-09-08T12:45:27;34.00;27.80
7530;DHT22;3806;52.270;10.544;2023-09-08T12:47:54;34.20;27.10
7530;DHT22;3806;52.270;10.544;2023-09-08T12:50:24;34.40;27.30
7530;DHT22;3806;52.270;10.544;2023-09-08T12:52:49;34.40;27.20
7530;DHT22;3806;52.270;10.544;2023-09-08T12:55:15;34.70;26.60
7530;DHT22;3806;52.270;10.544;2023-09-08T12:57:40;34.80;26.40
7530;DHT22;3806;52.270;10.544;2023-09-08T13:00:08;35.00;26.40
7530;DHT22;3806;52.270;10.544;2023-09-08T13:02:34;35.00;26.20
7530;DHT22;3806;52.270;10.544;2023-09-08T13:05:00;35.00;25.70
7530;DHT22;3806;52.270;10.544;2023-09-08T13:07:26;35.00;26.30
7530;DHT22;3806;52.270;10.544;2023-09-08T13:09:52;34.80;25.80
7530;DHT22;3806;52.270;10.544;2023-09-08T13:12:18;34.70;26.30
7530;DHT22;3806;52.270;10.544;2023-09-08T13:14:43;34.60;26.80
7530;DHT22;3806;52.270;10.544;2023-09-08T13:17:10;34.60;26.70
7530;DHT22;3806;52.270;10.544;2023-09-08T13:19:35;34.70;26.50
7530;DHT22;3806;52.270;10.544;2023-09-08T13:22:06;34.70;26.20
7530;DHT22;3806;52.270;10.544;2023-09-08T13:24:31;34.70;26.70
7530;DHT22;3806;52.270;10.544;2023-09-08T13:26:57;34.70;26.70
7530;DHT22;3806;52.270;10.544;2023-09-08T13:29:23;34.60;26.40
7530;DHT22;3806;52.270;10.544;2023-09-08T13:31:48;34.60;25.90
7530;DHT22;3806;52.270;10.544;2023-09-08T13:34:14;34.40;26.30
7530;DHT22;3806;52.270;10.544;2023-09-08T13:36:39;34.20;26.30
7530;DHT22;3806;52.270;10.544;2023-09-08T13:39:06;34.10;25.70
7530;DHT22;3806;52.270;10.544;2023-09-08T13:41:51;34.00;25.80
7530;DHT22;3806;52.270;10.544;2023-09-08T13:44:18;34.00;26.10
7530;DHT22;3806;52.270;10.544;2023-09-08T13:46:45;34.00;26.40
7530;DHT22;3806;52.270;10.544;2023-09-08T13:49:11;33.90;27.20
7530;DHT22;3806;52.270;10.544;2023-09-08T13:51:37;33.80;27.40
7530;DHT22;3806;52.270;10.544;2023-09-08T13:54:02;33.80;26.90
7530;DHT22;3806;52.270;10.544;2023-09-08T13:56:28;33.80;26.80
7530;DHT22;3806;52.270;10.544;2023-09-08T13:58:53;33.70;26.80
7530;DHT22;3806;52.270;10.544;2023-09-08T14:01:19;33.70;26.60
7530;DHT22;3806;52.270;10.544;2023-09-08T14:03:44;33.50;27.00
7530;DHT22;3806;52.270;10.544;2023-09-08T14:06:10;33.30;26.60
7530;DHT22;3806;52.270;10.544;2023-09-08T14:08:35;33.30;27.10
7530;DHT22;3806;52.270;10.544;2023-09-08T14:11:01;33.10;27.40
7530;DHT22;3806;52.270;10.544;2023-09-08T14:13:29;33.00;27.40
7530;DHT22;3806;52.270;10.544;2023-09-08T14:15:54;32.90;27.80
7530;DHT22;3806;52.270;10.544;2023-09-08T14:18:20;32.80;28.10
7530;DHT22;3806;52.270;10.544;2023-09-08T14:20:45;32.60;28.10
7530;DHT22;3806;52.270;10.544;2023-09-08T14:23:11;32.50;28.50
7530;DHT22;3806;52.270;10.544;2023-09-08T14:25:37;32.40;28.00
7530;DHT22;3806;52.270;10.544;2023-09-08T14:28:02;32.40;28.80
7530;DHT22;3806;52.270;10.544;2023-09-08T14:30:29;32.30;29.40
7530;DHT22;3806;52.270;10.544;2023-09-08T14:32:54;32.20;29.00
7530;DHT22;3806;52.270;10.544;2023-09-08T14:35:20;32.20;29.20
7530;DHT22;3806;52.270;10.544;2023-09-08T14:37:49;32.00;29.70
7530;DHT22;3806;52.270;10.544;2023-09-08T14:40:17;31.80;30.00
7530;DHT22;3806;52.270;10.544;2023-09-08T14:42:43;31.80;30.10
7530;DHT22;3806;52.270;10.544;2023-09-08T14:45:08;31.80;30.40
7530;DHT22;3806;52.270;10.544;2023-09-08T14:47:34;31.70;30.70
7530;DHT22;3806;52.270;10.544;2023-09-08T14:50:00;31.70;30.80
7530;DHT22;3806;52.270;10.544;2023-09-08T14:52:26;31.60;31.10
7530;DHT22;3806;52.270;10.544;2023-09-08T14:54:51;31.60;29.60
7530;DHT22;3806;52.270;10.544;2023-09-08T14:57:17;31.60;29.90
7530;DHT22;3806;52.270;10.544;2023-09-08T14:59:43;31.50;30.60
7530;DHT22;3806;52.270;10.544;2023-09-08T15:02:09;31.30;31.30
7530;DHT22;3806;52.270;10.544;2023-09-08T15:04:34;31.20;31.90
7530;DHT22;3806;52.270;10.544;2023-09-08T15:07:00;31.10;32.00
7530;DHT22;3806;52.270;10.544;2023-09-08T15:09:25;30.90;32.40
7530;DHT22;3806;52.270;10.544;2023-09-08T15:11:51;30.80;32.70
7530;DHT22;3806;52.270;10.544;2023-09-08T15:14:16;30.70;32.80
7530;DHT22;3806;52.270;10.544;2023-09-08T15:16:42;30.70;33.40
7530;DHT22;3806;52.270;10.544;2023-09-08T15:19:08;30.60;33.90
7530;DHT22;3806;52.270;10.544;2023-09-08T15:21:34;30.60;33.80
7530;DHT22;3806;52.270;10.544;2023-09-08T15:24:00;30.50;33.90
7530;DHT22;3806;52.270;10.544;2023-09-08T15:26:25;30.40;34.80
7530;DHT22;3806;52.270;10.544;2023-09-08T15:28:51;30.40;34.90
7530;DHT22;3806;52.270;10.544;2023-09-08T15:31:17;30.30;35.30
7530;DHT22;3806;52.270;10.544;2023-09-08T15:33:42;30.30;35.40
7530;DHT22;3806;52.270;10.544;2023-09-08T15:36:08;30.20;35.90
7530;DHT22;3806;52.270;10.544;2023-09-08T15:38:33;30.20;36.00
7530;DHT22;3806;52.270;10.544;2023-09-08T15:43:38;30.10;36.50
7530;DHT22;3806;52.270;10.544;2023-09-08T15:46:05;30.10;36.30